sensor_id;sensor_type;location;lat;lon;timestamp;pressure;altitude;pressure_sealevel;temperature;humidity
67377;BME280;54261;46.086;6.588;2023-02-12T00:04:17;94029.56;;;-1.16;40.05
67377;BME280;54261;46.086;6.588;2023-02-12T00:09:19;94039.13;;;-1.96;41.68
67377;BME280;54261;46.086;6.588;2023-02-12T00:14:21;94011.13;;;-1.16;39.95
67377;BME280;54261;46.086;6.588;2023-02-12T00:19:22;93989.97;;;0.40;37.37
67377;BME280;54261;46.086;6.588;2023-02-12T00:24:24;94024.22;;;-0.37;38.80
67377;BME280;54261;46.086;6.588;2023-02-12T00:29:27;94020.09;;;-0.26;38.95
67377;BME280;54261;46.086;6.588;2023-02-12T00:34:29;94017.31;;;-0.05;39.04
67377;BME280;54261;46.086;6.588;2023-02-12T00:39:31;94008.34;;;0.02;38.41
67377;BME280;54261;46.086;6.588;2023-02-12T00:44:32;93987.69;;;-1.65;40.93
67377;BME280;54261;46.086;6.588;2023-02-12T00:49:36;94015.31;;;-0.95;38.77
67377;BME280;54261;46.086;6.588;2023-02-12T00:54:38;94009.66;;;0.44;37.29
67377;BME280;54261;46.086;6.588;2023-02-12T00:59:40;93999.09;;;0.44;37.48
67377;BME280;54261;46.086;6.588;2023-02-12T01:04:43;94013.59;;;1.04;36.68
67377;BME280;54261;46.086;6.588;2023-02-12T01:09:45;94009.91;;;1.24;34.85
67377;BME280;54261;46.086;6.588;2023-02-12T01:14:47;94018.38;;;-0.98;38.51
67377;BME280;54261;46.086;6.588;2023-02-12T01:19:49;94010.03;;;0.47;36.15
67377;BME280;54261;46.086;6.588;2023-02-12T01:24:50;94006.59;;;0.47;37.19
67377;BME280;54261;46.086;6.588;2023-02-12T01:29:52;94010.97;;;0.60;36.59
67377;BME280;54261;46.086;6.588;2023-02-12T01:34:54;94016.56;;;1.64;35.16
67377;BME280;54261;46.086;6.588;2023-02-12T01:39:56;94005.81;;;-0.50;37.50
67377;BME280;54261;46.086;6.588;2023-02-12T01:50:18;94014.75;;;1.08;36.13
67377;BME280;54261;46.086;6.588;2023-02-12T01:55:21;94009.09;;;1.23;34.59
67377;BME280;54261;46.086;6.588;2023-02-12T02:00:25;94009.31;;;1.40;33.73
67377;BME280;54261;46.086;6.588;2023-02-12T02:05:37;94003.69;;;1.67;34.25
67377;BME280;54261;46.086;6.588;2023-02-12T02:10:42;93994.25;;;2.02;33.00
67377;BME280;54261;46.086;6.588;2023-02-12T02:15:48;93983.97;;;1.63;32.98
67377;BME280;54261;46.086;6.588;2023-02-12T02:21:18;93993.91;;;1.68;32.23
67377;BME280;54261;46.086;6.588;2023-02-12T02:26:52;93980.25;;;0.08;34.58
67377;BME280;54261;46.086;6.588;2023-02-12T02:32:07;93983.63;;;0.73;34.52
67377;BME280;54261;46.086;6.588;2023-02-12T02:42:53;93973.91;;;1.04;34.27
67377;BME280;54261;46.086;6.588;2023-02-12T02:48:04;93980.25;;;1.83;33.41
67377;BME280;54261;46.086;6.588;2023-02-12T02:53:30;93963.41;;;0.09;35.68
67377;BME280;54261;46.086;6.588;2023-02-12T02:58:38;93981.34;;;0.95;35.62
67377;BME280;54261;46.086;6.588;2023-02-12T03:03:49;93968.16;;;0.51;34.84
67377;BME280;54261;46.086;6.588;2023-02-12T03:08:57;93959.28;;;0.64;33.62
67377;BME280;54261;46.086;6.588;2023-02-12T03:14:21;93966.94;;;1.10;33.68
67377;BME280;54261;46.086;6.588;2023-02-12T03:19:27;93955.59;;;0.21;35.86
67377;BME280;54261;46.086;6.588;2023-02-12T03:25:00;93956.41;;;-1.20;38.34
67377;BME280;54261;46.086;6.588;2023-02-12T03:30:07;93942.72;;;-2.30;41.53
67377;BME280;54261;46.086;6.588;2023-02-12T03:40:26;93945.13;;;-2.36;41.38
67377;BME280;54261;46.086;6.588;2023-02-12T03:46:01;93951.25;;;-1.88;40.17
67377;BME280;54261;46.086;6.588;2023-02-12T04:01:35;93961.28;;;-1.24;39.80
67377;BME280;54261;46.086;6.588;2023-02-12T04:06:37;93968.34;;;0.75;37.55
67377;BME280;54261;46.086;6.588;2023-02-12T04:17:21;93949.72;;;-0.71;37.11
67377;BME280;54261;46.086;6.588;2023-02-12T04:22:55;93972.88;;;-0.80;37.07
67377;BME280;54261;46.086;6.588;2023-02-12T04:33:19;93968.03;;;-0.44;36.14
67377;BME280;54261;46.086;6.588;2023-02-12T04:38:31;93960.16;;;0.58;34.93
67377;BME280;54261;46.086;6.588;2023-02-12T04:43:36;93988.16;;;1.40;33.02
67377;BME280;54261;46.086;6.588;2023-02-12T04:48:56;93985.91;;;1.56;34.34
67377;BME280;54261;46.086;6.588;2023-02-12T04:53:59;93985.47;;;2.01;33.14
67377;BME280;54261;46.086;6.588;2023-02-12T04:59:01;93982.41;;;2.28;32.56
67377;BME280;54261;46.086;6.588;2023-02-12T05:04:04;93966.28;;;1.14;33.02
67377;BME280;54261;46.086;6.588;2023-02-12T05:09:07;93962.41;;;0.10;34.68
67377;BME280;54261;46.086;6.588;2023-02-12T05:14:09;93970.75;;;1.14;34.22
67377;BME280;54261;46.086;6.588;2023-02-12T05:19:11;93961.78;;;0.59;34.07
67377;BME280;54261;46.086;6.588;2023-02-12T05:24:13;93953.59;;;-1.26;37.90
67377;BME280;54261;46.086;6.588;2023-02-12T05:29:15;93959.53;;;-0.14;36.35
67377;BME280;54261;46.086;6.588;2023-02-12T05:34:17;93963.44;;;-0.23;36.49
67377;BME280;54261;46.086;6.588;2023-02-12T05:39:19;93958.28;;;-0.43;36.65
67377;BME280;54261;46.086;6.588;2023-02-12T05:44:20;93951.41;;;-0.19;37.01
67377;BME280;54261;46.086;6.588;2023-02-12T05:49:22;93947.16;;;-0.84;38.45
67377;BME280;54261;46.086;6.588;2023-02-12T05:54:24;93954.91;;;-1.82;40.25
67377;BME280;54261;46.086;6.588;2023-02-12T05:59:26;93950.06;;;-1.92;40.50
67377;BME280;54261;46.086;6.588;2023-02-12T06:04:28;93946.59;;;-1.86;40.76
67377;BME280;54261;46.086;6.588;2023-02-12T06:09:30;93924.59;;;-0.80;38.31
67377;BME280;54261;46.086;6.588;2023-02-12T06:14:31;93935.53;;;-0.38;38.13
67377;BME280;54261;46.086;6.588;2023-02-12T06:19:33;93934.75;;;-1.29;37.81
67377;BME280;54261;46.086;6.588;2023-02-12T06:24:35;93945.72;;;0.10;37.08
67377;BME280;54261;46.086;6.588;2023-02-12T06:29:37;93946.44;;;-0.66;36.72
67377;BME280;54261;46.086;6.588;2023-02-12T06:34:39;93958.25;;;-0.11;36.42
67377;BME280;54261;46.086;6.588;2023-02-12T06:39:41;93954.50;;;0.54;35.55
67377;BME280;54261;46.086;6.588;2023-02-12T06:44:43;93967.25;;;-0.19;35.35
67377;BME280;54261;46.086;6.588;2023-02-12T06:49:46;93978.88;;;-0.27;38.11
67377;BME280;54261;46.086;6.588;2023-02-12T06:54:48;93953.19;;;-0.77;38.44
67377;BME280;54261;46.086;6.588;2023-02-12T06:59:49;93989.31;;;-1.97;40.65
67377;BME280;54261;46.086;6.588;2023-02-12T07:04:51;93908.88;;;-0.61;37.99
67377;BME280;54261;46.086;6.588;2023-02-12T07:09:53;93967.66;;;-0.15;36.63
67377;BME280;54261;46.086;6.588;2023-02-12T07:14:55;93980.00;;;-1.80;40.55
67377;BME280;54261;46.086;6.588;2023-02-12T07:19:57;93980.00;;;-1.53;40.12
67377;BME280;54261;46.086;6.588;2023-02-12T07:24:59;93968.59;;;-0.35;38.05
67377;BME280;54261;46.086;6.588;2023-02-12T07:30:01;93989.84;;;0.02;38.08
67377;BME280;54261;46.086;6.588;2023-02-12T07:35:03;94003.28;;;0.01;37.32
67377;BME280;54261;46.086;6.588;2023-02-12T07:40:05;93960.56;;;-1.85;40.21
67377;BME280;54261;46.086;6.588;2023-02-12T07:45:08;93996.16;;;-1.49;39.86
67377;BME280;54261;46.086;6.588;2023-02-12T07:50:10;93975.09;;;-2.03;41.42
67377;BME280;54261;46.086;6.588;2023-02-12T07:55:12;94001.72;;;-0.91;40.22
67377;BME280;54261;46.086;6.588;2023-02-12T08:00:14;94012.94;;;0.14;39.71
67377;BME280;54261;46.086;6.588;2023-02-12T08:05:16;93950.03;;;-0.21;37.83
67377;BME280;54261;46.086;6.588;2023-02-12T08:10:18;93988.50;;;1.44;37.07
67377;BME280;54261;46.086;6.588;2023-02-12T08:15:22;93988.31;;;1.88;35.25
67377;BME280;54261;46.086;6.588;2023-02-12T08:20:24;93980.69;;;2.22;34.81
67377;BME280;54261;46.086;6.588;2023-02-12T08:25:26;93985.47;;;2.68;34.32
67377;BME280;54261;46.086;6.588;2023-02-12T08:30:28;94003.47;;;2.90;33.26
67377;BME280;54261;46.086;6.588;2023-02-12T08:35:30;93977.00;;;2.23;32.16
67377;BME280;54261;46.086;6.588;2023-02-12T08:40:32;94010.94;;;2.81;32.81
67377;BME280;54261;46.086;6.588;2023-02-12T08:45:34;93962.50;;;1.71;32.55
67377;BME280;54261;46.086;6.588;2023-02-12T08:50:35;93994.00;;;2.58;32.72
67377;BME280;54261;46.086;6.588;2023-02-12T08:55:37;93988.78;;;3.11;32.25
67377;BME280;54261;46.086;6.588;2023-02-12T09:00:39;93999.16;;;0.63;33.79
67377;BME280;54261;46.086;6.588;2023-02-12T09:05:41;93975.94;;;-1.75;38.69
67377;BME280;54261;46.086;6.588;2023-02-12T09:10:43;93992.66;;;-3.06;42.77
67377;BME280;54261;46.086;6.588;2023-02-12T09:15:45;94010.78;;;-1.80;40.53
67377;BME280;54261;46.086;6.588;2023-02-12T09:20:47;93996.84;;;-0.42;39.29
67377;BME280;54261;46.086;6.588;2023-02-12T09:25:49;94006.38;;;0.74;37.94
67377;BME280;54261;46.086;6.588;2023-02-12T09:30:51;94023.72;;;-3.23;44.88
67377;BME280;54261;46.086;6.588;2023-02-12T09:35:53;93979.88;;;-2.67;43.53
67377;BME280;54261;46.086;6.588;2023-02-12T09:51:30;94003.91;;;-0.04;39.53
67377;BME280;54261;46.086;6.588;2023-02-12T09:56:34;94000.25;;;-3.25;43.23
67377;BME280;54261;46.086;6.588;2023-02-12T10:01:38;93974.63;;;-4.73;47.53
67377;BME280;54261;46.086;6.588;2023-02-12T10:06:47;93921.19;;;-5.16;48.84
67377;BME280;54261;46.086;6.588;2023-02-12T10:28:00;94018.50;;;-0.33;38.31
67377;BME280;54261;46.086;6.588;2023-02-12T10:33:06;94026.19;;;-0.25;38.16
67377;BME280;54261;46.086;6.588;2023-02-12T10:38:19;93985.22;;;-0.73;38.24
67377;BME280;54261;46.086;6.588;2023-02-12T10:43:23;93988.94;;;-1.94;42.72
67377;BME280;54261;46.086;6.588;2023-02-12T10:48:35;94010.59;;;-1.72;43.39
67377;BME280;54261;46.086;6.588;2023-02-12T10:53:40;93999.63;;;-2.85;44.19
67377;BME280;54261;46.086;6.588;2023-02-12T11:03:51;93982.75;;;-3.04;46.63
67377;BME280;54261;46.086;6.588;2023-02-12T11:08:55;93981.59;;;-2.26;45.79
67377;BME280;54261;46.086;6.588;2023-02-12T11:14:05;93986.44;;;-2.23;45.67
67377;BME280;54261;46.086;6.588;2023-02-12T11:19:19;93956.50;;;-0.95;44.79
67377;BME280;54261;46.086;6.588;2023-02-12T11:29:26;93962.41;;;-2.95;48.99
67377;BME280;54261;46.086;6.588;2023-02-12T11:34:28;93953.16;;;1.38;42.66
67377;BME280;54261;46.086;6.588;2023-02-12T11:39:35;93956.53;;;-1.95;46.62
67377;BME280;54261;46.086;6.588;2023-02-12T11:44:51;93948.41;;;-1.59;45.89
67377;BME280;54261;46.086;6.588;2023-02-12T11:55:21;93943.84;;;-2.73;48.76
67377;BME280;54261;46.086;6.588;2023-02-12T12:00:28;93920.06;;;-2.38;48.37
67377;BME280;54261;46.086;6.588;2023-02-12T12:05:35;93932.13;;;-2.78;50.46
67377;BME280;54261;46.086;6.588;2023-02-12T12:10:56;93877.69;;;-1.62;47.16
67377;BME280;54261;46.086;6.588;2023-02-12T12:16:08;93913.53;;;0.19;44.58
67377;BME280;54261;46.086;6.588;2023-02-12T12:21:35;93931.81;;;1.52;42.83
67377;BME280;54261;46.086;6.588;2023-02-12T12:26:43;93929.13;;;1.82;41.45
67377;BME280;54261;46.086;6.588;2023-02-12T12:31:49;93924.41;;;-0.46;43.50
67377;BME280;54261;46.086;6.588;2023-02-12T12:42:12;93891.28;;;1.82;39.81
67377;BME280;54261;46.086;6.588;2023-02-12T13:09:16;93896.81;;;4.43;36.33
67377;BME280;54261;46.086;6.588;2023-02-12T13:14:26;93893.75;;;1.53;42.49
67377;BME280;54261;46.086;6.588;2023-02-12T13:19:41;93893.84;;;0.97;42.62
67377;BME280;54261;46.086;6.588;2023-02-12T13:24:53;93889.34;;;4.23;38.74
67377;BME280;54261;46.086;6.588;2023-02-12T13:30:15;93877.50;;;3.33;37.23
67377;BME280;54261;46.086;6.588;2023-02-12T13:35:20;93885.75;;;5.40;35.72
67377;BME280;54261;46.086;6.588;2023-02-12T13:40:26;93881.38;;;2.25;40.71
67377;BME280;54261;46.086;6.588;2023-02-12T13:45:51;93881.03;;;3.85;35.71
67377;BME280;54261;46.086;6.588;2023-02-12T14:01:34;93882.06;;;3.09;39.20
67377;BME280;54261;46.086;6.588;2023-02-12T14:06:36;93880.78;;;1.02;42.79
67377;BME280;54261;46.086;6.588;2023-02-12T14:11:50;93870.94;;;3.24;36.94
67377;BME280;54261;46.086;6.588;2023-02-12T14:16:53;93896.06;;;5.32;34.22
67377;BME280;54261;46.086;6.588;2023-02-12T14:21:55;93896.00;;;4.42;36.60
67377;BME280;54261;46.086;6.588;2023-02-12T14:26:57;93889.47;;;6.70;33.21
67377;BME280;54261;46.086;6.588;2023-02-12T14:31:59;93897.06;;;4.24;36.97
67377;BME280;54261;46.086;6.588;2023-02-12T14:37:15;93900.53;;;4.42;36.51
67377;BME280;54261;46.086;6.588;2023-02-12T14:52:37;93901.03;;;2.89;38.47
67377;BME280;54261;46.086;6.588;2023-02-12T14:57:41;93889.47;;;3.65;36.89
67377;BME280;54261;46.086;6.588;2023-02-12T15:08:17;93913.78;;;5.21;34.59
67377;BME280;54261;46.086;6.588;2023-02-12T15:28:35;93901.63;;;6.93;33.25
67377;BME280;54261;46.086;6.588;2023-02-12T15:33:42;93905.31;;;6.82;31.57
67377;BME280;54261;46.086;6.588;2023-02-12T15:39:05;93926.31;;;5.70;34.72
67377;BME280;54261;46.086;6.588;2023-02-12T15:49:29;93908.63;;;7.10;31.06
67377;BME280;54261;46.086;6.588;2023-02-12T15:54:32;93880.16;;;4.13;36.04
67377;BME280;54261;46.086;6.588;2023-02-12T15:59:34;93898.34;;;4.78;35.43
67377;BME280;54261;46.086;6.588;2023-02-12T16:04:36;93897.41;;;5.34;36.24
67377;BME280;54261;46.086;6.588;2023-02-12T16:09:43;93900.13;;;4.16;36.44
67377;BME280;54261;46.086;6.588;2023-02-12T16:14:50;93889.91;;;4.08;37.80
67377;BME280;54261;46.086;6.588;2023-02-12T16:20:03;93897.59;;;7.80;34.03
67377;BME280;54261;46.086;6.588;2023-02-12T16:35:34;93891.31;;;9.75;30.68
67377;BME280;54261;46.086;6.588;2023-02-12T16:40:36;93918.25;;;9.95;29.17
67377;BME280;54261;46.086;6.588;2023-02-12T16:45:39;93911.75;;;8.90;30.23
67377;BME280;54261;46.086;6.588;2023-02-12T16:50:48;93905.81;;;7.43;32.20
67377;BME280;54261;46.086;6.588;2023-02-12T16:55:51;93883.47;;;8.16;30.76
67377;BME280;54261;46.086;6.588;2023-02-12T17:00:54;93935.91;;;8.33;30.74
67377;BME280;54261;46.086;6.588;2023-02-12T17:05:57;93908.84;;;7.72;31.51
67377;BME280;54261;46.086;6.588;2023-02-12T17:10:59;93902.81;;;6.70;33.02
67377;BME280;54261;46.086;6.588;2023-02-12T17:16:01;93929.56;;;6.80;33.25
67377;BME280;54261;46.086;6.588;2023-02-12T17:21:19;93945.66;;;7.55;32.17
67377;BME280;54261;46.086;6.588;2023-02-12T17:26:23;93926.75;;;7.82;30.69
67377;BME280;54261;46.086;6.588;2023-02-12T17:31:25;93885.09;;;7.02;30.85
67377;BME280;54261;46.086;6.588;2023-02-12T17:36:27;93919.84;;;7.12;31.00
67377;BME280;54261;46.086;6.588;2023-02-12T17:41:29;93961.97;;;7.00;31.43
67377;BME280;54261;46.086;6.588;2023-02-12T17:46:31;93965.69;;;6.23;32.71
67377;BME280;54261;46.086;6.588;2023-02-12T17:51:33;93961.03;;;6.73;31.96
67377;BME280;54261;46.086;6.588;2023-02-12T17:56:35;93963.13;;;6.71;31.92
67377;BME280;54261;46.086;6.588;2023-02-12T18:01:37;93955.22;;;6.49;32.09
67377;BME280;54261;46.086;6.588;2023-02-12T18:06:40;93970.38;;;6.10;32.27
67377;BME280;54261;46.086;6.588;2023-02-12T18:11:42;93939.81;;;5.41;33.53
67377;BME280;54261;46.086;6.588;2023-02-12T18:16:44;93973.63;;;5.40;34.49
67377;BME280;54261;46.086;6.588;2023-02-12T18:21:46;93957.78;;;4.67;35.09
67377;BME280;54261;46.086;6.588;2023-02-12T18:26:48;93967.28;;;5.91;33.65
67377;BME280;54261;46.086;6.588;2023-02-12T18:31:53;93955.50;;;5.15;33.46
67377;BME280;54261;46.086;6.588;2023-02-12T18:36:55;93942.44;;;4.74;35.23
67377;BME280;54261;46.086;6.588;2023-02-12T18:41:57;93923.88;;;4.40;35.88
67377;BME280;54261;46.086;6.588;2023-02-12T18:46:59;93922.09;;;4.85;34.44
67377;BME280;54261;46.086;6.588;2023-02-12T18:52:01;93965.38;;;4.97;34.58
67377;BME280;54261;46.086;6.588;2023-02-12T18:57:03;93958.25;;;5.03;34.85
67377;BME280;54261;46.086;6.588;2023-02-12T19:02:05;93968.53;;;5.17;35.66
67377;BME280;54261;46.086;6.588;2023-02-12T19:07:07;93961.66;;;4.98;35.07
67377;BME280;54261;46.086;6.588;2023-02-12T19:12:09;93969.34;;;5.17;35.77
67377;BME280;54261;46.086;6.588;2023-02-12T19:17:11;93969.31;;;4.55;35.83
67377;BME280;54261;46.086;6.588;2023-02-12T19:22:13;93968.75;;;3.90;37.18
67377;BME280;54261;46.086;6.588;2023-02-12T19:27:15;93968.84;;;3.95;37.82
67377;BME280;54261;46.086;6.588;2023-02-12T19:32:18;93968.81;;;3.49;38.66
67377;BME280;54261;46.086;6.588;2023-02-12T19:37:20;93971.66;;;2.66;39.95
67377;BME280;54261;46.086;6.588;2023-02-12T19:42:22;93981.75;;;3.05;39.74
67377;BME280;54261;46.086;6.588;2023-02-12T19:47:24;93973.81;;;2.45;40.83
67377;BME280;54261;46.086;6.588;2023-02-12T19:52:27;93985.81;;;2.83;40.37
67377;BME280;54261;46.086;6.588;2023-02-12T19:57:29;93968.84;;;3.95;38.32
67377;BME280;54261;46.086;6.588;2023-02-12T20:02:31;93967.47;;;2.94;39.74
67377;BME280;54261;46.086;6.588;2023-02-12T20:07:33;93995.03;;;2.45;40.11
67377;BME280;54261;46.086;6.588;2023-02-12T20:12:35;94002.22;;;2.14;40.96
67377;BME280;54261;46.086;6.588;2023-02-12T20:17:40;94001.88;;;2.22;41.89
67377;BME280;54261;46.086;6.588;2023-02-12T20:22:44;93998.13;;;2.54;40.97
67377;BME280;54261;46.086;6.588;2023-02-12T20:27:46;94003.00;;;2.93;40.62
67377;BME280;54261;46.086;6.588;2023-02-12T20:32:48;94002.25;;;3.91;38.69
67377;BME280;54261;46.086;6.588;2023-02-12T20:37:51;94004.28;;;3.43;38.76
67377;BME280;54261;46.086;6.588;2023-02-12T20:42:53;94013.00;;;3.55;38.84
67377;BME280;54261;46.086;6.588;2023-02-12T20:47:55;94016.59;;;3.49;38.36
67377;BME280;54261;46.086;6.588;2023-02-12T20:52:57;94007.34;;;2.75;39.78
67377;BME280;54261;46.086;6.588;2023-02-12T20:57:59;94008.41;;;2.62;40.02
67377;BME280;54261;46.086;6.588;2023-02-12T21:03:01;94016.31;;;1.96;41.02
67377;BME280;54261;46.086;6.588;2023-02-12T21:08:05;94005.66;;;2.57;40.20
67377;BME280;54261;46.086;6.588;2023-02-12T21:13:08;94027.16;;;1.64;42.54
67377;BME280;54261;46.086;6.588;2023-02-12T21:18:10;94017.22;;;0.66;44.37
67377;BME280;54261;46.086;6.588;2023-02-12T21:23:13;94035.03;;;1.33;42.81
67377;BME280;54261;46.086;6.588;2023-02-12T21:28:16;94032.81;;;0.74;44.76
67377;BME280;54261;46.086;6.588;2023-02-12T21:33:18;94029.09;;;1.38;43.23
67377;BME280;54261;46.086;6.588;2023-02-12T21:38:20;94031.78;;;0.94;43.96
67377;BME280;54261;46.086;6.588;2023-02-12T21:43:23;94020.09;;;1.88;42.44
67377;BME280;54261;46.086;6.588;2023-02-12T21:48:25;94046.25;;;1.66;42.90
67377;BME280;54261;46.086;6.588;2023-02-12T21:53:27;94046.50;;;1.45;42.55
67377;BME280;54261;46.086;6.588;2023-02-12T21:58:29;94037.78;;;0.82;44.05
67377;BME280;54261;46.086;6.588;2023-02-12T22:03:31;94038.97;;;0.10;45.00
67377;BME280;54261;46.086;6.588;2023-02-12T22:08:34;94035.41;;;-0.02;45.01
67377;BME280;54261;46.086;6.588;2023-02-12T22:13:36;94034.59;;;0.99;45.07
67377;BME280;54261;46.086;6.588;2023-02-12T22:18:40;94051.31;;;2.28;42.38
67377;BME280;54261;46.086;6.588;2023-02-12T22:23:42;94051.50;;;3.29;40.67
67377;BME280;54261;46.086;6.588;2023-02-12T22:28:46;94054.41;;;2.92;40.51
67377;BME280;54261;46.086;6.588;2023-02-12T22:33:51;94042.56;;;1.67;41.83
67377;BME280;54261;46.086;6.588;2023-02-12T22:38:56;94023.47;;;2.38;40.11
67377;BME280;54261;46.086;6.588;2023-02-12T22:44:00;94040.88;;;1.72;41.60
67377;BME280;54261;46.086;6.588;2023-02-12T22:49:02;94021.91;;;1.08;42.73
67377;BME280;54261;46.086;6.588;2023-02-12T22:54:05;94049.72;;;0.41;44.96
67377;BME280;54261;46.086;6.588;2023-02-12T22:59:08;94053.03;;;2.89;41.02
67377;BME280;54261;46.086;6.588;2023-02-12T23:04:17;94057.47;;;-0.29;45.44
67377;BME280;54261;46.086;6.588;2023-02-12T23:09:19;93984.88;;;0.45;44.27
67377;BME280;54261;46.086;6.588;2023-02-12T23:14:21;94062.34;;;0.64;44.56
67377;BME280;54261;46.086;6.588;2023-02-12T23:19:23;94064.44;;;0.30;44.88
67377;BME280;54261;46.086;6.588;2023-02-12T23:24:25;94057.91;;;-0.39;45.50
67377;BME280;54261;46.086;6.588;2023-02-12T23:29:27;94075.25;;;1.91;42.44
67377;BME280;54261;46.086;6.588;2023-02-12T23:34:29;94076.94;;;1.55;41.32
67377;BME280;54261;46.086;6.588;2023-02-12T23:39:30;94066.50;;;0.53;44.52
67377;BME280;54261;46.086;6.588;2023-02-12T23:44:32;94084.41;;;1.77;42.31
67377;BME280;54261;46.086;6.588;2023-02-12T23:49:34;94075.34;;;2.15;41.80
67377;BME280;54261;46.086;6.588;2023-02-12T23:54:37;94071.25;;;2.31;41.17
67377;BME280;54261;46.086;6.588;2023-02-12T23:59:40;94073.63;;;2.21;39.72
